createdAt,value
2023-04-02T00:00:10.899Z,8.24
2023-04-02T00:03:16.011Z,8.28
2023-04-02T00:06:30.552Z,8.39
2023-04-02T00:09:37.568Z,8.49
2023-04-02T00:12:39.853Z,8.53
2023-04-02T00:15:45.872Z,8.69
2023-04-02T00:18:53.158Z,8.83
2023-04-02T00:21:57.294Z,8.86
2023-04-02T00:25:02.680Z,8.94
2023-04-02T00:28:04.996Z,9.03
2023-04-02T00:31:10.627Z,8.99
2023-04-02T00:34:25.810Z,8.87
2023-04-02T00:37:39.117Z,8.79
2023-04-02T00:40:42.559Z,8.62
2023-04-02T00:43:47.153Z,8.59
2023-04-02T00:46:50.965Z,8.70
2023-04-02T00:50:21.504Z,8.60
2023-04-02T00:53:31.556Z,8.50
2023-04-02T00:56:44.172Z,8.57
2023-04-02T01:00:08.621Z,8.48
2023-04-02T01:03:39.017Z,8.38
2023-04-02T01:06:43.976Z,8.24
2023-04-02T01:10:18.289Z,8.11
2023-04-02T01:13:46.060Z,7.91
2023-04-02T01:17:03.946Z,7.93
2023-04-02T01:20:45.185Z,7.81
2023-04-02T01:23:56.475Z,7.73
2023-04-02T01:27:03.988Z,7.66
2023-04-02T01:30:08.010Z,7.64
2023-04-02T01:33:12.101Z,7.53
2023-04-02T01:36:26.255Z,7.56
2023-04-02T01:39:31.591Z,7.46
2023-04-02T01:42:57.938Z,7.44
2023-04-02T01:46:06.631Z,7.36
2023-04-02T01:49:18.914Z,7.39
2023-04-02T01:52:35.331Z,7.50
2023-04-02T01:55:43.091Z,7.60
2023-04-02T01:58:46.221Z,7.71
2023-04-02T02:01:57.260Z,7.54
2023-04-02T02:04:59.720Z,7.50
2023-04-02T02:08:02.731Z,7.47
2023-04-02T02:11:07.945Z,7.52
2023-04-02T02:14:16.753Z,7.53
2023-04-02T02:17:26.640Z,7.64
2023-04-02T02:20:29.276Z,7.62
2023-04-02T02:23:32.523Z,7.64
2023-04-02T02:26:36.642Z,7.63
2023-04-02T02:29:42.846Z,7.69
2023-04-02T02:33:15.331Z,7.70
2023-04-02T02:36:35.115Z,7.69
2023-04-02T02:39:50.066Z,6.98
2023-04-02T02:42:56.891Z,6.75
2023-04-02T02:46:07.863Z,6.20
2023-04-02T02:49:19.430Z,5.99
2023-04-02T02:52:27.020Z,5.82
2023-04-02T02:55:37.918Z,5.73
2023-04-02T02:58:52.785Z,5.38
2023-04-02T03:02:01.056Z,5.11
2023-04-02T03:05:04.976Z,4.96
2023-04-02T03:08:16.268Z,5.03
2023-04-02T03:11:41.573Z,5.23
2023-04-02T03:15:03.416Z,5.38
2023-04-02T03:18:14.446Z,5.51
2023-04-02T03:21:31.456Z,5.66
2023-04-02T03:24:36.779Z,5.71
2023-04-02T03:27:43.840Z,5.80
2023-04-02T03:30:57.276Z,5.93
2023-04-02T03:34:07.810Z,6.06
2023-04-02T03:37:44.537Z,6.30
2023-04-02T03:41:10.047Z,6.45
2023-04-02T03:44:26.760Z,6.55
2023-04-02T03:47:39.197Z,6.54
2023-04-02T03:50:45.355Z,6.57
2023-04-02T03:53:49.483Z,6.63
2023-04-02T03:56:52.619Z,6.77
2023-04-02T04:00:20.373Z,6.95
2023-04-02T04:03:37.032Z,7.08
2023-04-02T04:06:42.854Z,7.03
2023-04-02T04:09:46.981Z,7.05
2023-04-02T04:12:51.260Z,7.06
2023-04-02T04:16:11.777Z,7.12
2023-04-02T04:19:32.711Z,7.12
2023-04-02T04:22:35.279Z,7.13
2023-04-02T04:26:02.071Z,7.22
2023-04-02T04:29:32.042Z,7.37
2023-04-02T04:32:50.240Z,7.46
2023-04-02T04:35:59.519Z,7.47
2023-04-02T04:39:14.719Z,7.47
2023-04-02T04:42:29.038Z,7.52
2023-04-02T04:45:50.722Z,7.56
2023-04-02T04:49:12.437Z,7.63
2023-04-02T04:52:24.874Z,7.73
2023-04-02T04:55:43.741Z,7.74
2023-04-02T04:58:52.659Z,7.75
2023-04-02T05:02:07.037Z,7.91
2023-04-02T05:05:25.018Z,8.12
2023-04-02T05:08:33.853Z,8.26
2023-04-02T05:11:42.783Z,8.56
2023-04-02T05:14:58.066Z,8.87
2023-04-02T05:18:28.325Z,9.07
2023-04-02T05:21:49.607Z,9.31
2023-04-02T05:25:27.674Z,9.41
2023-04-02T05:28:47.169Z,9.57
2023-04-02T05:32:30.646Z,9.68
2023-04-02T05:35:42.687Z,9.82
2023-04-02T05:38:47.693Z,9.92
2023-04-02T05:42:07.492Z,10.03
2023-04-02T05:45:39.028Z,10.13
2023-04-02T05:48:48.179Z,10.32
2023-04-02T05:51:54.969Z,10.39
2023-04-02T05:55:13.473Z,10.47
2023-04-02T05:58:35.512Z,10.60
2023-04-02T06:02:21.963Z,10.77
2023-04-02T06:05:28.655Z,10.85
2023-04-02T06:08:45.787Z,10.91
2023-04-02T06:11:56.434Z,11.04
2023-04-02T06:14:59.052Z,11.04
2023-04-02T06:18:17.422Z,11.00
2023-04-02T06:21:21.182Z,11.15
2023-04-02T06:24:29.821Z,11.15
2023-04-02T06:27:33.864Z,11.26
2023-04-02T06:30:39.520Z,11.36
2023-04-02T06:33:43.385Z,11.50
2023-04-02T06:36:48.732Z,11.53
2023-04-02T06:39:51.684Z,11.80
2023-04-02T06:43:06.108Z,11.90
2023-04-02T06:46:37.637Z,11.86
2023-04-02T06:50:07.177Z,11.98
2023-04-02T06:53:21.601Z,12.05
2023-04-02T06:56:41.130Z,12.28
2023-04-02T06:59:43.848Z,12.44
2023-04-02T07:02:55.141Z,12.45
2023-04-02T07:06:00.101Z,12.45
2023-04-02T07:09:03.340Z,12.61
2023-04-02T07:12:13.452Z,12.79
2023-04-02T07:15:19.496Z,13.04
2023-04-02T07:18:22.211Z,13.14
2023-04-02T07:21:26.583Z,13.44
2023-04-02T07:24:29.082Z,13.63
2023-04-02T07:27:31.442Z,13.77
2023-04-02T07:30:33.877Z,13.92
2023-04-02T07:33:36.123Z,14.05
2023-04-02T07:36:38.446Z,14.30
2023-04-02T07:39:40.843Z,14.35
2023-04-02T07:42:43.115Z,14.55
2023-04-02T07:45:45.388Z,15.00
2023-04-02T07:48:47.955Z,14.90
2023-04-02T07:51:51.640Z,15.23
2023-04-02T07:54:53.886Z,15.82
2023-04-02T07:57:58.289Z,16.38
2023-04-02T08:01:03.748Z,16.06
2023-04-02T08:04:07.951Z,15.88
2023-04-02T08:07:10.497Z,16.16
2023-04-02T08:10:12.995Z,16.24
2023-04-02T08:13:16.845Z,16.36
2023-04-02T08:16:19.166Z,16.03
2023-04-02T08:19:22.202Z,16.51
2023-04-02T08:22:24.391Z,16.64
2023-04-02T08:25:27.716Z,16.84
2023-04-02T08:28:30.177Z,17.28
2023-04-02T08:31:32.446Z,17.39
2023-04-02T08:34:34.685Z,17.45
2023-04-02T08:37:37.527Z,17.83
2023-04-02T08:40:43.562Z,17.79
2023-04-02T08:44:03.885Z,17.81
2023-04-02T08:47:08.110Z,18.22
2023-04-02T08:50:33.215Z,18.31
2023-04-02T08:53:39.373Z,18.95
2023-04-02T08:56:47.260Z,19.58
2023-04-02T08:59:58.101Z,19.44
2023-04-02T09:03:12.333Z,18.71
2023-04-02T09:06:18.133Z,18.55
2023-04-02T09:09:22.367Z,18.00
2023-04-02T09:12:28.454Z,17.49
2023-04-02T09:15:36.064Z,18.98
2023-04-02T09:18:39.371Z,19.85
2023-04-02T09:21:48.661Z,19.55
2023-04-02T09:24:55.566Z,18.20
2023-04-02T09:28:02.090Z,17.71
2023-04-02T09:31:20.924Z,17.39
2023-04-02T09:34:34.932Z,16.68
2023-04-02T09:37:37.463Z,16.58
2023-04-02T09:40:54.276Z,16.61
2023-04-02T09:44:22.124Z,16.60
2023-04-02T09:47:27.167Z,16.38
2023-04-02T09:50:34.342Z,16.17
2023-04-02T09:53:40.571Z,16.02
2023-04-02T09:57:01.145Z,15.76
2023-04-02T10:00:25.227Z,15.85
2023-04-02T10:03:33.257Z,16.12
2023-04-02T10:06:35.766Z,16.30
2023-04-02T10:09:38.624Z,16.65
2023-04-02T10:12:43.839Z,18.20
2023-04-02T10:15:57.247Z,18.30
2023-04-02T10:19:07.343Z,17.98
2023-04-02T10:22:21.663Z,17.56
2023-04-02T10:25:27.511Z,16.87
2023-04-02T10:28:39.454Z,16.92
2023-04-02T10:32:00.613Z,16.96
2023-04-02T10:35:03.669Z,16.88
2023-04-02T10:38:27.027Z,16.85
2023-04-02T10:41:50.009Z,16.58
2023-04-02T10:45:12.638Z,16.70
2023-04-02T10:48:23.009Z,16.64
2023-04-02T10:51:48.797Z,16.00
2023-04-02T10:54:54.562Z,15.95
2023-04-02T10:58:03.131Z,16.10
2023-04-02T11:01:16.997Z,16.56
2023-04-02T11:04:26.074Z,17.02
2023-04-02T11:07:30.983Z,18.81
2023-04-02T11:10:37.216Z,22.23
2023-04-02T11:13:59.464Z,22.43
2023-04-02T11:17:03.412Z,20.22
2023-04-02T11:20:51.849Z,19.10
2023-04-02T11:24:03.686Z,18.53
2023-04-02T11:27:11.721Z,18.30
2023-04-02T11:30:24.539Z,18.14
2023-04-02T11:33:39.939Z,18.08
2023-04-02T11:36:50.234Z,22.67
2023-04-02T11:39:55.240Z,22.50
2023-04-02T11:43:38.306Z,21.38
2023-04-02T11:46:42.459Z,19.65
2023-04-02T11:49:54.897Z,18.83
2023-04-02T11:53:12.235Z,20.88
2023-04-02T11:56:32.708Z,22.03
2023-04-02T12:00:13.397Z,21.66
2023-04-02T12:03:45.004Z,20.05
2023-04-02T12:07:17.622Z,18.71
2023-04-02T12:10:51.399Z,17.93
2023-04-02T12:13:54.269Z,17.39
2023-04-02T12:16:57.170Z,16.92
2023-04-02T12:20:20.391Z,16.81
2023-04-02T12:23:34.819Z,19.60
2023-04-02T12:26:38.017Z,19.33
2023-04-02T12:29:41.489Z,19.89
2023-04-02T12:32:44.105Z,19.55
2023-04-02T12:35:54.861Z,20.18
2023-04-02T12:38:58.603Z,20.32
2023-04-02T12:42:01.485Z,19.70
2023-04-02T12:45:05.695Z,19.02
2023-04-02T12:48:12.027Z,18.11
2023-04-02T12:51:14.372Z,17.70
2023-04-02T12:54:18.453Z,17.50
2023-04-02T12:57:33.341Z,17.62
2023-04-02T13:00:36.476Z,18.21
2023-04-02T13:03:38.948Z,21.88
2023-04-02T13:06:47.325Z,20.74
2023-04-02T13:09:52.589Z,20.09
2023-04-02T13:13:04.263Z,19.57
2023-04-02T13:16:15.560Z,19.33
2023-04-02T13:19:17.804Z,18.32
2023-04-02T13:22:32.292Z,17.53
2023-04-02T13:25:43.946Z,17.08
2023-04-02T13:28:58.974Z,16.77
2023-04-02T13:32:11.452Z,16.78
2023-04-02T13:35:13.687Z,16.68
2023-04-02T13:38:15.966Z,16.70
2023-04-02T13:41:27.518Z,16.85
2023-04-02T13:44:31.703Z,18.90
2023-04-02T13:47:34.002Z,20.52
2023-04-02T13:50:36.549Z,21.21
2023-04-02T13:53:39.087Z,22.20
2023-04-02T13:56:41.371Z,22.77
2023-04-02T13:59:43.704Z,23.52
2023-04-02T14:02:52.267Z,22.29
2023-04-02T14:06:03.377Z,22.63
2023-04-02T14:09:14.837Z,21.88
2023-04-02T14:12:39.126Z,22.37
2023-04-02T14:15:56.623Z,21.28
2023-04-02T14:19:13.967Z,20.05
2023-04-02T14:22:31.640Z,19.02
2023-04-02T14:25:54.037Z,18.24
2023-04-02T14:29:07.258Z,17.46
2023-04-02T14:32:20.959Z,17.05
2023-04-02T14:35:48.335Z,16.74
2023-04-02T14:39:17.572Z,16.30
2023-04-02T14:42:27.365Z,16.17
2023-04-02T14:45:47.207Z,16.09
2023-04-02T14:49:22.229Z,15.96
2023-04-02T14:52:28.706Z,15.75
2023-04-02T14:55:36.078Z,15.62
2023-04-02T14:58:42.458Z,15.66
2023-04-02T15:01:49.421Z,15.73
2023-04-02T15:05:01.543Z,15.72
2023-04-02T15:08:18.074Z,15.66
2023-04-02T15:11:27.425Z,15.65
2023-04-02T15:14:38.888Z,15.82
2023-04-02T15:17:41.162Z,16.24
2023-04-02T15:20:52.499Z,16.63
2023-04-02T15:24:13.088Z,17.96
2023-04-02T15:27:38.264Z,18.30
2023-04-02T15:30:43.299Z,17.65
2023-04-02T15:33:59.310Z,17.29
2023-04-02T15:37:08.270Z,16.64
2023-04-02T15:40:47.580Z,16.30
2023-04-02T15:44:13.210Z,16.02
2023-04-02T15:47:37.144Z,15.79
2023-04-02T15:50:49.727Z,15.63
2023-04-02T15:54:07.107Z,15.69
2023-04-02T15:57:34.225Z,15.57
2023-04-02T16:00:52.952Z,15.41
2023-04-02T16:04:21.555Z,15.37
2023-04-02T16:07:51.147Z,15.39
2023-04-02T16:10:53.402Z,15.41
2023-04-02T16:14:15.553Z,15.23
2023-04-02T16:17:34.893Z,15.21
2023-04-02T16:20:46.238Z,15.18
2023-04-02T16:23:49.305Z,15.06
2023-04-02T16:27:22.285Z,14.93
2023-04-02T16:30:46.003Z,14.75
2023-04-02T16:33:54.266Z,14.72
2023-04-02T16:37:14.577Z,14.62
2023-04-02T16:40:36.959Z,14.53
2023-04-02T16:43:54.199Z,14.52
2023-04-02T16:47:17.792Z,14.42
2023-04-02T16:50:47.038Z,14.30
2023-04-02T16:54:02.020Z,14.21
2023-04-02T16:57:10.753Z,14.14
2023-04-02T17:00:22.505Z,14.16
2023-04-02T17:03:43.793Z,14.09
2023-04-02T17:06:58.245Z,14.09
2023-04-02T17:10:44.997Z,13.97
2023-04-02T17:13:53.434Z,13.91
2023-04-02T17:17:03.649Z,13.82
2023-04-02T17:20:17.490Z,13.77
2023-04-02T17:23:20.345Z,13.67
2023-04-02T17:26:27.208Z,13.60
2023-04-02T17:29:40.858Z,13.44
2023-04-02T17:32:43.148Z,13.42
2023-04-02T17:36:00.079Z,13.23
2023-04-02T17:39:09.354Z,13.22
2023-04-02T17:42:45.746Z,13.20
2023-04-02T17:45:54.503Z,13.13
2023-04-02T17:49:08.314Z,13.07
2023-04-02T17:52:23.458Z,13.10
2023-04-02T17:55:47.452Z,13.19
2023-04-02T17:58:58.935Z,13.12
2023-04-02T18:02:19.046Z,13.09
2023-04-02T18:05:27.653Z,13.06
2023-04-02T18:09:07.480Z,12.99
2023-04-02T18:12:50.934Z,13.03
2023-04-02T18:16:04.882Z,12.99
2023-04-02T18:19:19.302Z,12.95
2023-04-02T18:22:34.836Z,12.92
2023-04-02T18:25:52.326Z,12.93
2023-04-02T18:29:27.066Z,12.76
2023-04-02T18:32:32.089Z,12.75
2023-04-02T18:35:41.416Z,12.75
2023-04-02T18:39:00.023Z,12.69
2023-04-02T18:42:33.921Z,12.71
2023-04-02T18:46:05.267Z,12.65
2023-04-02T18:49:19.876Z,12.69
2023-04-02T18:52:24.847Z,12.65
2023-04-02T18:55:29.180Z,12.58
2023-04-02T18:58:58.637Z,12.56
2023-04-02T19:02:27.100Z,12.66
2023-04-02T19:05:51.438Z,12.49
2023-04-02T19:09:15.195Z,12.48
2023-04-02T19:12:19.975Z,12.35
2023-04-02T19:15:29.039Z,12.34
2023-04-02T19:18:53.271Z,12.24
2023-04-02T19:22:10.647Z,12.16
2023-04-02T19:26:01.768Z,12.04
2023-04-02T19:29:29.298Z,11.95
2023-04-02T19:33:13.326Z,11.79
2023-04-02T19:36:35.789Z,11.80
2023-04-02T19:40:09.373Z,11.60
2023-04-02T19:43:11.943Z,11.55
2023-04-02T19:46:14.419Z,11.42
2023-04-02T19:49:22.988Z,11.32
2023-04-02T19:52:25.301Z,11.26
2023-04-02T19:55:27.661Z,11.14
2023-04-02T19:58:32.191Z,11.02
2023-04-02T20:01:34.771Z,10.80
2023-04-02T20:04:37.339Z,10.61
2023-04-02T20:07:39.833Z,10.30
2023-04-02T20:10:42.338Z,10.33
2023-04-02T20:13:44.584Z,10.16
2023-04-02T20:16:46.853Z,10.06
2023-04-02T20:19:49.129Z,9.83
2023-04-02T20:22:51.370Z,9.62
2023-04-02T20:25:56.761Z,9.57
2023-04-02T20:29:01.696Z,9.58
2023-04-02T20:32:03.963Z,9.51
2023-04-02T20:35:06.862Z,9.35
2023-04-02T20:38:09.149Z,9.30
2023-04-02T20:41:11.657Z,9.28
2023-04-02T20:44:14.043Z,9.10
2023-04-02T20:47:16.376Z,9.10
2023-04-02T20:50:18.719Z,9.17
2023-04-02T20:53:20.999Z,9.26
2023-04-02T20:56:26.810Z,9.08
2023-04-02T20:59:29.096Z,8.89
2023-04-02T21:02:31.564Z,8.76
2023-04-02T21:05:33.932Z,8.75
2023-04-02T21:08:37.042Z,8.52
2023-04-02T21:11:39.437Z,8.25
2023-04-02T21:14:41.678Z,8.12
2023-04-02T21:17:44.795Z,8.18
2023-04-02T21:20:56.468Z,8.15
2023-04-02T21:24:01.095Z,7.93
2023-04-02T21:27:03.428Z,7.77
2023-04-02T21:30:06.305Z,7.73
2023-04-02T21:33:08.591Z,7.66
2023-04-02T21:36:13.923Z,7.62
2023-04-02T21:39:19.530Z,7.52
2023-04-02T21:42:22.392Z,7.37
2023-04-02T21:45:24.581Z,7.36
2023-04-02T21:48:27.321Z,7.33
2023-04-02T21:51:31.975Z,7.20
2023-04-02T21:54:34.258Z,7.20
2023-04-02T21:57:36.521Z,7.11
2023-04-02T22:00:39.062Z,7.03
2023-04-02T22:03:41.850Z,7.03
2023-04-02T22:06:44.864Z,6.94
2023-04-02T22:09:47.084Z,6.98
2023-04-02T22:12:49.342Z,6.95
2023-04-02T22:15:51.575Z,6.91
2023-04-02T22:18:55.685Z,6.80
2023-04-02T22:21:57.885Z,6.70
2023-04-02T22:25:01.751Z,6.67
2023-04-02T22:28:04.106Z,6.55
2023-04-02T22:31:18.255Z,6.43
2023-04-02T22:34:21.120Z,6.38
2023-04-02T22:37:23.359Z,6.41
2023-04-02T22:40:26.022Z,6.27
2023-04-02T22:43:28.258Z,6.33
2023-04-02T22:46:31.502Z,6.21
2023-04-02T22:49:33.820Z,6.26
2023-04-02T22:52:36.711Z,6.16
2023-04-02T22:55:39.042Z,6.10
2023-04-02T22:58:41.606Z,6.09
2023-04-02T23:01:43.881Z,6.10
2023-04-02T23:04:46.216Z,6.06
2023-04-02T23:07:48.432Z,6.02
2023-04-02T23:10:50.941Z,6.10
2023-04-02T23:13:54.924Z,6.09
2023-04-02T23:16:57.118Z,6.05
2023-04-02T23:19:59.357Z,6.03
2023-04-02T23:23:01.586Z,6.09
2023-04-02T23:26:08.575Z,6.05
2023-04-02T23:29:11.721Z,6.09
2023-04-02T23:32:13.982Z,6.19
2023-04-02T23:35:16.256Z,6.21
2023-04-02T23:38:18.518Z,6.31
2023-04-02T23:41:22.150Z,6.24
2023-04-02T23:44:24.590Z,6.26
2023-04-02T23:47:27.545Z,6.38
2023-04-02T23:50:29.791Z,6.43
2023-04-02T23:53:33.406Z,6.53
2023-04-02T23:56:35.842Z,6.60
2023-04-02T23:59:38.106Z,6.70
